Time;durP1;ratioP1;P1;durP2;ratioP2;P2;SDS_P1;SDS_P2;PMS_P1;PMS_P2;Temp;Humidity;BMP_temperature;BMP_pressure;BME280_temperature;BME280_humidity;BME280_pressure;Samples;Min_cycle;Max_cycle;Signal;HPM_P1;HPM_P2
2022/08/28 00:02:46;;;;;;;29.67;9.18;;;;;;;31.67;66.98;97689.06;4893365;29;20438;-71
2022/08/28 00:05:38;;;;;;;25.70;10.55;;;;;;;31.61;66.88;97685.84;4892596;29;20083;-71
2022/08/28 00:08:20;;;;;;;26.88;9.85;;;;;;;31.67;66.75;97691.84;4893133;29;20056;-71
2022/08/28 00:11:10;;;;;;;19.42;9.13;;;;;;;31.66;66.94;97698.53;4893499;29;20059;-70
2022/08/28 00:13:52;;;;;;;29.30;9.40;;;;;;;31.53;67.12;97702.78;4898400;29;20056;-70
2022/08/28 00:16:42;;;;;;;25.45;8.52;;;;;;;31.64;67.12;97706.44;4911924;29;20074;-72
2022/08/28 00:19:24;;;;;;;23.70;8.20;;;;;;;31.65;67.18;97705.28;4911997;29;20052;-71
2022/08/28 00:22:18;;;;;;;25.52;8.57;;;;;;;31.62;66.85;97714.34;4902200;29;20556;-71
2022/08/28 00:25:17;;;;;;;25.27;9.23;;;;;;;31.60;67.67;97719.47;4893618;29;20072;-71
2022/08/28 00:28:09;;;;;;;18.85;8.23;;;;;;;31.64;67.30;97719.53;4891440;29;20080;-71
2022/08/28 00:31:05;;;;;;;28.67;9.68;;;;;;;31.56;67.46;97719.44;4876010;29;20058;-70
2022/08/28 00:33:54;;;;;;;24.33;10.60;;;;;;;31.57;67.99;97723.81;4873800;29;20044;-72
2022/08/28 00:36:44;;;;;;;24.00;9.27;;;;;;;31.61;67.84;97723.88;4874158;29;20085;-71
2022/08/28 00:39:33;;;;;;;19.92;9.00;;;;;;;31.63;67.62;97729.84;4881786;29;20675;-71
2022/08/28 00:42:16;;;;;;;22.63;9.82;;;;;;;31.48;67.97;97722.53;4892559;29;20435;-70
2022/08/28 00:45:12;;;;;;;22.80;9.18;;;;;;;31.40;68.25;97727.16;4909772;29;20201;-70
2022/08/28 00:47:47;;;;;;;25.58;10.77;;;;;;;31.52;67.65;97723.34;4911563;29;20056;-73
2022/08/28 00:53:43;;;;;;;31.27;11.27;;;;;;;31.56;67.81;97736.06;4911700;29;20364;-70
2022/08/28 00:56:26;;;;;;;22.55;9.73;;;;;;;31.60;67.98;97736.13;4910871;29;20062;-73
2022/08/28 00:59:18;;;;;;;24.35;9.27;;;;;;;31.61;67.78;97740.50;4892284;29;20064;-70
2022/08/28 01:02:00;;;;;;;24.73;9.70;;;;;;;31.58;68.07;97741.25;4894546;29;20117;-71
2022/08/28 01:04:50;;;;;;;22.27;9.65;;;;;;;31.64;67.73;97750.03;4892423;29;20115;-69
2022/08/28 01:07:32;;;;;;;25.55;8.63;;;;;;;31.71;67.46;97752.91;4892466;29;20060;-70
2022/08/28 01:10:26;;;;;;;28.20;8.95;;;;;;;31.66;67.90;97751.25;4892479;29;20493;-70
2022/08/28 01:13:08;;;;;;;24.50;9.63;;;;;;;31.70;67.44;97751.28;4891892;29;20059;-69
2022/08/28 01:15:58;;;;;;;31.17;9.35;;;;;;;31.67;67.93;97747.31;4893026;29;20052;-70
2022/08/28 01:18:42;;;;;;;28.38;9.73;;;;;;;31.66;68.06;97756.78;4910404;29;20043;-71
2022/08/28 01:21:53;;;;;;;21.00;9.77;;;;;;;31.73;67.49;97756.88;4906717;29;20547;-71
2022/08/28 01:24:37;;;;;;;25.77;11.30;;;;;;;31.67;67.69;97758.41;4893755;28;20052;-71
2022/08/28 01:27:26;;;;;;;24.90;11.43;;;;;;;31.77;67.79;97756.94;4874411;29;20052;-71
2022/08/28 01:30:12;;;;;;;24.45;10.82;;;;;;;31.83;67.28;97754.63;4892733;29;20724;-69
2022/08/28 01:33:03;;;;;;;24.25;10.55;;;;;;;31.92;67.33;97755.13;4883644;29;20109;-69
2022/08/28 01:35:46;;;;;;;27.55;11.68;;;;;;;31.94;67.37;97761.88;4873298;29;20057;-70
2022/08/28 01:38:35;;;;;;;33.67;11.45;;;;;;;31.76;67.99;97760.91;4873357;29;20128;-70
2022/08/28 01:41:24;;;;;;;25.65;11.98;;;;;;;31.79;67.49;97763.69;4873133;29;20061;-71
2022/08/28 01:44:13;;;;;;;29.98;12.52;;;;;;;31.68;68.01;97760.00;4873268;29;20474;-70
2022/08/28 01:46:58;;;;;;;34.72;13.65;;;;;;;31.89;67.36;97766.97;4872374;29;20056;-71
2022/08/28 01:49:48;;;;;;;27.05;12.68;;;;;;;31.86;67.21;97776.06;4873428;29;20048;-70
2022/08/28 01:52:30;;;;;;;29.63;12.32;;;;;;;31.94;66.63;97774.97;4857684;29;20056;-69
2022/08/28 01:55:19;;;;;;;24.30;12.45;;;;;;;31.86;67.12;97779.63;4871630;29;20056;-69
2022/08/28 01:57:55;;;;;;;28.35;12.27;;;;;;;31.99;66.95;97774.63;4885309;29;20131;-70
2022/08/28 02:00:51;;;;;;;32.20;13.18;;;;;;;31.98;66.77;97784.13;4854475;29;20132;-69
2022/08/28 02:03:28;;;;;;;23.83;12.23;;;;;;;32.06;66.75;97771.16;4872702;29;20049;-71
2022/08/28 02:06:18;;;;;;;28.02;10.77;;;;;;;31.95;66.37;97779.34;4872931;29;20065;-70
2022/08/28 02:09:00;;;;;;;24.40;10.20;;;;;;;32.07;66.43;97784.66;4874580;29;20046;-71
2022/08/28 02:12:00;;;;;;;27.10;10.30;;;;;;;32.27;65.84;97784.47;4875802;29;20041;-71
2022/08/28 02:14:37;;;;;;;25.77;9.85;;;;;;;32.37;65.65;97789.34;4873614;29;20521;-71
2022/08/28 02:17:26;;;;;;;18.75;8.85;;;;;;;32.36;65.34;97787.72;4874301;29;20139;-71
2022/08/28 02:20:10;;;;;;;21.90;8.82;;;;;;;32.64;64.30;97792.00;4872268;29;20045;-71
2022/08/28 02:23:06;;;;;;;24.60;9.05;;;;;;;33.39;62.60;97783.41;4890306;28;20063;-71
2022/08/28 02:26:02;;;;;;;22.35;9.07;;;;;;;33.99;60.54;97788.47;4892775;28;20048;-71
2022/08/28 02:28:50;;;;;;;28.58;10.20;;;;;;;34.26;59.33;97785.38;4882827;29;20132;-71
2022/08/28 02:31:33;;;;;;;17.92;8.02;;;;;;;34.17;59.52;97793.34;4872173;29;20045;-70
2022/08/28 02:34:28;;;;;;;18.08;8.65;;;;;;;34.06;59.91;97791.28;4870430;29;20100;-72
2022/08/28 02:37:06;;;;;;;24.20;9.25;;;;;;;33.90;60.61;97790.84;4858326;29;20044;-70
2022/08/28 02:39:56;;;;;;;19.05;9.15;;;;;;;33.60;61.46;97791.88;4872813;29;20076;-69
2022/08/28 02:42:38;;;;;;;;;;;;;;;33.49;61.47;97799.34;4872723;29;20215;-71
2022/08/28 02:45:33;;;;;;;27.85;8.82;;;;;;;33.22;62.32;97799.59;4855555;29;19996;-70
2022/08/28 02:48:08;;;;;;;29.85;9.02;;;;;;;33.41;61.75;97800.50;4872152;29;20517;-71
2022/08/28 02:51:07;;;;;;;27.48;9.50;;;;;;;33.57;61.67;97803.75;4872962;29;20061;-72
2022/08/28 02:53:42;;;;;;;36.03;10.05;;;;;;;33.09;62.31;97806.63;4855863;29;20052;-72
2022/08/28 02:56:37;;;;;;;26.10;9.77;;;;;;;33.35;62.02;97809.22;4875712;29;20060;-71
2022/08/28 02:59:13;;;;;;;24.70;9.35;;;;;;;33.21;62.25;97809.13;4890410;29;20056;-71
2022/08/28 03:02:08;;;;;;;23.65;9.98;;;;;;;33.46;61.90;97811.25;4873610;29;20052;-71
2022/08/28 03:04:44;;;;;;;24.77;10.60;;;;;;;33.51;62.26;97816.47;4890894;29;20552;-70
2022/08/28 03:07:34;;;;;;;28.20;11.95;;;;;;;33.41;62.40;97822.75;4890748;29;20044;-70
2022/08/28 03:10:23;;;;;;;28.23;10.93;;;;;;;33.41;62.17;97822.75;4874543;29;20381;-71
2022/08/28 03:13:06;;;;;;;32.03;11.40;;;;;;;33.61;61.96;97821.28;4872608;29;20113;-70
2022/08/28 03:16:07;;;;;;;23.15;11.18;;;;;;;33.25;62.39;97821.09;4871498;29;20147;-70
2022/08/28 03:18:49;;;;;;;23.02;10.98;;;;;;;33.67;61.06;97819.75;4871918;29;20045;-69
2022/08/28 03:21:38;;;;;;;18.60;9.85;;;;;;;33.55;61.78;97820.06;4876665;29;20053;-71
2022/08/28 03:24:20;;;;;;;21.20;10.45;;;;;;;33.63;61.83;97818.94;4893814;28;20136;-69
2022/08/28 03:27:10;;;;;;;21.13;9.52;;;;;;;33.81;61.12;97818.22;4908976;29;20068;-71
2022/08/28 03:29:52;;;;;;;22.20;9.20;;;;;;;33.91;61.16;97820.25;4904495;29;20069;-71
2022/08/28 03:32:42;;;;;;;25.13;9.68;;;;;;;33.90;60.24;97810.31;4890429;29;20045;-69
2022/08/28 03:35:24;;;;;;;25.40;9.05;;;;;;;33.81;60.72;97818.22;4885123;29;20135;-70
2022/08/28 03:38:13;;;;;;;20.58;8.50;;;;;;;33.73;60.88;97823.75;4890295;29;20048;-69
2022/08/28 03:40:55;;;;;;;19.38;8.60;;;;;;;33.90;60.59;97810.31;4890856;29;20650;-70
2022/08/28 03:43:45;;;;;;;28.10;8.18;;;;;;;34.09;60.37;97818.34;4890596;29;20068;-70
2022/08/28 03:46:35;;;;;;;19.38;7.55;;;;;;;33.88;59.59;97829.38;4890407;29;20052;-71
2022/08/28 03:49:24;;;;;;;16.30;7.45;;;;;;;34.11;59.64;97829.09;4889664;29;20052;-70
2022/08/28 03:52:13;;;;;;;19.60;7.13;;;;;;;34.01;59.32;97827.84;4893245;29;20482;-71
2022/08/28 03:54:55;;;;;;;20.40;7.55;;;;;;;34.44;58.99;97816.84;4894039;29;20059;-70
2022/08/28 03:57:44;;;;;;;17.65;7.50;;;;;;;34.47;58.53;97832.78;4893586;29;20072;-71
2022/08/28 04:00:26;;;;;;;20.45;7.72;;;;;;;34.44;58.26;97830.00;4893359;29;20059;-71
2022/08/28 04:03:15;;;;;;;19.55;7.45;;;;;;;34.26;59.37;97824.38;4893432;29;20655;-70
2022/08/28 04:05:57;;;;;;;14.68;7.30;;;;;;;34.12;58.27;97828.69;4893742;29;20139;-73
2022/08/28 04:08:47;;;;;;;25.30;7.60;;;;;;;34.65;57.98;97834.81;4894068;29;20048;-71
2022/08/28 04:11:45;;;;;;;15.70;6.13;;;;;;;34.86;56.54;97831.25;4896693;29;20132;-72
2022/08/28 04:14:35;;;;;;;21.05;6.75;;;;;;;34.40;57.71;97827.19;4888828;29;20044;-71
2022/08/28 04:17:25;;;;;;;24.20;8.00;;;;;;;34.94;57.51;97826.47;4900557;29;20552;-71
2022/08/28 04:20:09;;;;;;;16.17;6.88;;;;;;;35.10;57.01;97829.66;4900485;29;20047;-71
2022/08/28 04:23:02;;;;;;;23.02;7.55;;;;;;;35.22;56.59;97831.28;4902512;29;20113;-72
2022/08/28 04:25:57;;;;;;;20.05;7.53;;;;;;;35.22;56.35;97836.84;4897109;28;20067;-71
2022/08/28 04:28:53;;;;;;;16.33;7.13;;;;;;;35.12;55.86;97830.03;4885018;28;20052;-70
2022/08/28 04:31:48;;;;;;;15.55;7.25;;;;;;;35.43;55.00;97831.22;4894304;28;20053;-72
2022/08/28 04:34:38;;;;;;;13.90;7.38;;;;;;;35.82;55.45;97840.72;4892872;29;20050;-71
2022/08/28 04:37:27;;;;;;;15.10;6.30;;;;;;;36.15;53.83;97844.94;4894460;29;20068;-72
2022/08/28 04:40:16;;;;;;;26.17;7.15;;;;;;;36.12;52.78;97850.59;4908633;29;20048;-72
2022/08/28 04:42:58;;;;;;;16.90;5.68;;;;;;;36.56;52.25;97854.75;4911897;29;20108;-72
2022/08/28 04:45:47;;;;;;;14.50;7.07;;;;;;;36.75;50.88;97851.44;4912434;29;20059;-71
2022/08/28 04:48:29;;;;;;;17.48;5.63;;;;;;;36.76;51.67;97847.44;4916000;29;20048;-71
2022/08/28 04:51:19;;;;;;;17.77;6.00;;;;;;;36.89;50.55;97850.53;4913946;29;20358;-74
2022/08/28 04:54:02;;;;;;;12.23;4.60;;;;;;;37.05;49.71;97850.00;4909888;29;20468;-72
2022/08/28 04:56:51;;;;;;;15.05;6.03;;;;;;;36.36;50.78;97858.03;4906874;29;20623;-72
2022/08/28 04:59:43;;;;;;;15.20;6.57;;;;;;;36.81;50.38;97855.41;4892112;29;20044;-71
2022/08/28 05:02:32;;;;;;;9.88;5.03;;;;;;;36.55;49.75;97853.16;4896492;29;20342;-72
2022/08/28 05:05:14;;;;;;;11.77;5.10;;;;;;;36.73;50.80;97853.88;4900174;29;20492;-72
2022/08/28 05:08:03;;;;;;;13.20;4.78;;;;;;;37.02;50.78;97862.03;4901524;29;20135;-71
2022/08/28 05:10:46;;;;;;;16.17;4.70;;;;;;;36.83;49.24;97858.56;4901382;29;20048;-72
2022/08/28 05:13:35;;;;;;;13.70;4.82;;;;;;;36.92;50.07;97860.09;4884445;29;20492;-71
2022/08/28 05:16:25;;;;;;;14.10;5.03;;;;;;;36.91;49.49;97861.31;4906827;29;20063;-68
2022/08/28 05:19:07;;;;;;;15.98;6.25;;;;;;;37.20;50.08;97865.50;4888991;29;20506;-72
2022/08/28 05:21:57;;;;;;;15.82;5.13;;;;;;;36.84;51.20;97857.38;4900868;29;20056;-70
2022/08/28 05:24:39;;;;;;;14.05;5.65;;;;;;;37.14;49.61;97861.53;4898720;29;20059;-70
2022/08/28 05:27:28;;;;;;;10.23;4.70;;;;;;;37.44;49.92;97860.09;4900716;29;20103;-69
2022/08/28 05:30:17;;;;;;;23.45;5.57;;;;;;;37.40;48.93;97862.13;4907418;28;20280;-67
2022/08/28 05:33:22;;;;;;;15.05;4.22;;;;;;;36.70;50.12;97871.44;4880474;29;20647;-66
2022/08/28 05:36:11;;;;;;;13.23;5.95;;;;;;;36.50;50.71;97878.72;4881504;29;20068;-67
2022/08/28 05:39:04;;;;;;;11.40;5.28;;;;;;;36.59;51.39;97870.69;4872749;29;20045;-66
2022/08/28 05:41:46;;;;;;;20.02;6.97;;;;;;;36.69;50.69;97881.06;4871438;29;20559;-65
2022/08/28 05:44:35;;;;;;;14.85;6.47;;;;;;;36.68;50.61;97873.88;4872630;29;20045;-64
2022/08/28 05:47:17;;;;;;;19.42;6.38;;;;;;;37.40;49.73;97873.31;4873777;29;20077;-66
2022/08/28 05:50:07;;;;;;;14.50;5.45;;;;;;;37.24;50.07;97882.25;4876664;29;20049;-66
2022/08/28 05:52:49;;;;;;;17.00;6.32;;;;;;;36.92;51.04;97879.69;4883014;29;20381;-67
2022/08/28 05:55:38;;;;;;;13.02;6.25;;;;;;;36.17;52.32;97878.09;4885752;29;20056;-66
2022/08/28 05:58:30;;;;;;;15.75;5.85;;;;;;;36.19;52.04;97882.09;4882204;29;20052;-66
2022/08/28 06:01:27;;;;;;;19.60;5.40;;;;;;;36.13;52.08;97883.66;4888127;29;20421;-67
2022/08/28 06:04:13;;;;;;;14.57;4.90;;;;;;;36.86;52.62;97873.75;4868299;29;20186;-66
2022/08/28 06:07:03;;;;;;;17.58;5.15;;;;;;;37.41;50.13;97869.28;4871754;29;20065;-64
2022/08/28 06:09:51;;;;;;;27.13;4.88;;;;;;;37.30;48.94;97875.00;4871377;29;20469;-65
2022/08/28 06:12:33;;;;;;;16.58;5.68;;;;;;;37.67;48.54;97867.09;4873487;29;20446;-65
2022/08/28 06:15:22;;;;;;;12.95;5.50;;;;;;;37.56;48.11;97861.56;4869954;29;20045;-66
2022/08/28 06:18:04;;;;;;;12.13;4.75;;;;;;;37.75;46.16;97865.78;4870901;29;20064;-66
2022/08/28 06:21:01;;;;;;;12.25;4.90;;;;;;;37.52;48.39;97864.38;4867211;29;20508;-66
2022/08/28 06:23:36;;;;;;;15.43;4.20;;;;;;;37.31;47.06;97859.00;4873305;29;20048;-65
2022/08/28 06:26:32;;;;;;;16.85;5.32;;;;;;;37.22;47.78;97859.47;4885272;29;20685;-66
2022/08/28 06:29:10;;;;;;;19.08;6.00;;;;;;;37.32;47.64;97855.00;4871189;29;20085;-65
2022/08/28 06:32:09;;;;;;;14.02;4.93;;;;;;;37.12;48.04;97854.75;4891796;29;20131;-67
2022/08/28 06:34:58;;;;;;;15.32;5.57;;;;;;;37.52;46.75;97847.59;4899454;29;20060;-66
2022/08/28 06:37:47;;;;;;;27.42;6.45;;;;;;;37.66;48.05;97855.06;4899774;29;20080;-67
2022/08/28 06:40:29;;;;;;;20.95;5.60;;;;;;;37.32;49.85;97849.38;4900081;29;20934;-66
2022/08/28 06:43:19;;;;;;;13.10;5.68;;;;;;;37.25;48.82;97860.69;4897584;29;20063;-65
2022/08/28 06:46:02;;;;;;;14.05;5.97;;;;;;;37.32;47.89;97853.00;4906194;29;20064;-64
2022/08/28 06:48:51;;;;;;;18.63;6.18;;;;;;;37.52;48.89;97858.78;4899799;29;20107;-67
2022/08/28 06:51:34;;;;;;;;;;;;;;;38.07;45.30;97859.00;4888216;29;20052;-67
2022/08/28 06:54:23;;;;;;;18.50;5.88;;;;;;;37.26;47.82;97848.25;4895635;29;19927;-66
2022/08/28 06:57:12;;;;;;;24.00;5.38;;;;;;;37.26;49.21;97849.03;4877785;29;20532;-66
2022/08/28 07:00:02;;;;;;;12.60;4.95;;;;;;;37.20;49.17;97856.31;4900513;29;20048;-65
2022/08/28 07:02:43;;;;;;;;;;;;;;;37.21;49.04;97849.50;4901291;29;20371;-67
2022/08/28 07:05:32;;;;;;;21.25;6.22;;;;;;;37.38;49.66;97847.75;4871715;29;19928;-68
2022/08/28 07:08:14;;;;;;;19.00;5.82;;;;;;;37.38;47.65;97842.16;4864067;29;20036;-66
2022/08/28 07:11:03;;;;;;;16.60;5.28;;;;;;;37.79;45.66;97841.31;4894650;29;20587;-66
2022/08/28 07:13:45;;;;;;;18.88;4.85;;;;;;;37.54;46.36;97850.78;4875624;29;20057;-65
2022/08/28 07:16:38;;;;;;;18.60;5.43;;;;;;;37.27;49.55;97833.84;4888074;29;20131;-72
2022/08/28 07:19:20;;;;;;;18.23;5.70;;;;;;;37.46;47.94;97835.25;4889556;29;20056;-69
2022/08/28 07:22:09;;;;;;;12.30;4.97;;;;;;;37.69;48.87;97833.84;4874106;29;20406;-69
2022/08/28 07:24:53;;;;;;;13.23;5.17;;;;;;;37.76;47.86;97823.38;4890624;29;20076;-69
2022/08/28 07:27:43;;;;;;;14.02;5.57;;;;;;;38.13;49.82;97820.94;4902470;29;20131;-69
2022/08/28 07:30:25;;;;;;;14.95;5.32;;;;;;;37.92;48.76;97813.56;4896431;29;20072;-69
2022/08/28 07:33:20;;;;;;;14.18;6.07;;;;;;;37.46;50.63;97815.69;4888612;29;20071;-70
2022/08/28 07:36:15;;;;;;;19.52;6.10;;;;;;;37.76;47.92;97814.19;4908494;29;20420;-68
2022/08/28 07:39:11;;;;;;;17.17;6.65;;;;;;;37.78;47.67;97808.94;4899910;29;20068;-71
2022/08/28 07:42:00;;;;;;;22.05;6.93;;;;;;;37.30;49.48;97807.84;4897627;29;20068;-68
2022/08/28 07:44:49;;;;;;;18.90;7.30;;;;;;;37.27;49.40;97803.06;4910993;29;20528;-66
2022/08/28 07:47:38;;;;;;;27.55;9.20;;;;;;;37.70;49.11;97807.44;4897608;29;20075;-66
2022/08/28 07:50:20;;;;;;;19.63;8.77;;;;;;;37.56;49.76;97803.56;4899823;29;20071;-69
2022/08/28 07:53:09;;;;;;;26.55;10.93;;;;;;;37.36;49.23;97794.22;4898553;29;20048;-64
2022/08/28 07:55:51;;;;;;;19.35;8.75;;;;;;;37.71;48.55;97795.03;4879444;29;20049;-69
2022/08/28 07:58:47;;;;;;;24.50;9.82;;;;;;;37.80;49.23;97789.72;4894721;29;20052;-68
2022/08/28 08:01:23;;;;;;;23.27;8.73;;;;;;;37.58;47.86;97789.16;4894910;29;20045;-68
2022/08/28 08:04:14;;;;;;;21.85;9.45;;;;;;;37.48;48.15;97790.88;4894528;29;20048;-69
2022/08/28 08:07:03;;;;;;;17.15;8.55;;;;;;;37.41;49.18;97786.16;4900036;29;20055;-67
2022/08/28 08:09:45;;;;;;;16.85;8.20;;;;;;;37.69;46.96;97777.84;4895339;29;20068;-67
2022/08/28 08:12:37;;;;;;;16.67;7.57;;;;;;;37.92;47.06;97774.38;4898542;29;20545;-68
2022/08/28 08:15:32;;;;;;;21.75;7.70;;;;;;;37.61;46.69;97777.94;4901187;29;20063;-66
2022/08/28 08:18:08;;;;;;;19.52;8.02;;;;;;;37.65;46.72;97777.13;4894578;29;20052;-68
2022/08/28 08:21:11;;;;;;;15.35;7.82;;;;;;;37.89;45.02;97769.59;4895325;29;20059;-67
2022/08/28 08:23:47;;;;;;;19.52;8.10;;;;;;;37.30;45.90;97759.47;4892780;29;20096;-70
2022/08/28 08:26:36;;;;;;;19.42;7.85;;;;;;;37.67;46.70;97764.28;4890072;29;20048;-68
2022/08/28 08:29:19;;;;;;;20.98;7.28;;;;;;;37.38;49.03;97767.38;4893420;29;20140;-68
2022/08/28 08:32:10;;;;;;;19.90;8.20;;;;;;;37.19;48.82;97752.00;4891226;29;20059;-67
2022/08/28 08:35:01;;;;;;;18.60;8.43;;;;;;;37.44;48.99;97750.94;4903231;29;20608;-68
2022/08/28 08:37:57;;;;;;;21.42;8.10;;;;;;;37.48;48.54;97746.06;4906346;29;20060;-68
2022/08/28 08:40:54;;;;;;;18.08;7.63;;;;;;;37.46;48.65;97742.91;4895351;29;20072;-69
2022/08/28 08:43:59;;;;;;;17.60;7.60;;;;;;;37.83;48.78;97746.84;4889625;29;20048;-69
2022/08/28 08:47:15;;;;;;;19.42;7.35;;;;;;;37.30;49.33;97735.09;4910079;29;20700;-69
2022/08/28 08:50:32;;;;;;;16.10;7.28;;;;;;;37.31;48.08;97739.47;4909004;29;20060;-68
2022/08/28 08:54:08;;;;;;;23.65;7.07;;;;;;;37.10;48.65;97729.28;4905695;29;20488;-69
2022/08/28 08:57:00;;;;;;;20.10;7.47;;;;;;;36.61;48.98;97720.13;4878098;29;20096;-69
2022/08/28 08:59:42;;;;;;;16.77;5.90;;;;;;;36.77;48.81;97726.03;4901763;29;20059;-69
2022/08/28 09:02:39;;;;;;;17.38;6.82;;;;;;;36.55;50.42;97719.78;4904358;29;20048;-69
2022/08/28 09:05:32;;;;;;;22.90;6.65;;;;;;;37.09;50.06;97710.13;4894605;29;20143;-69
2022/08/28 09:08:31;;;;;;;19.70;6.93;;;;;;;37.30;50.28;97706.31;4880576;29;20556;-70
2022/08/28 09:11:43;;;;;;;21.55;6.35;;;;;;;36.78;48.95;97710.03;4897742;29;20055;-70
2022/08/28 09:15:08;;;;;;;22.45;5.90;;;;;;;36.98;49.53;97708.25;4883632;29;20483;-69
2022/08/28 09:18:12;;;;;;;18.15;6.15;;;;;;;37.22;49.02;97702.81;4899295;29;20056;-69
2022/08/28 09:20:58;;;;;;;19.70;5.50;;;;;;;37.48;48.83;97703.31;4906676;29;20539;-69
2022/08/28 09:23:47;;;;;;;22.65;6.07;;;;;;;37.42;48.89;97697.38;4888050;29;20055;-68
2022/08/28 09:26:30;;;;;;;24.80;6.22;;;;;;;37.21;49.05;97692.84;4901362;29;20044;-69
2022/08/28 09:29:26;;;;;;;15.60;6.03;;;;;;;37.04;49.43;97694.59;4899361;29;20064;-69
2022/08/28 09:32:28;;;;;;;11.02;5.07;;;;;;;37.01;47.92;97685.03;4895476;29;20060;-69
2022/08/28 09:35:28;;;;;;;19.05;6.05;;;;;;;37.17;46.55;97680.91;4898910;29;20137;-69
2022/08/28 09:38:27;;;;;;;14.75;4.55;;;;;;;37.15;47.58;97675.72;4899822;29;20060;-69
2022/08/28 09:44:20;;;;;;;22.90;5.47;;;;;;;36.73;48.11;97680.53;4899841;29;20120;-66
2022/08/28 09:47:02;;;;;;;24.95;6.53;;;;;;;36.90;48.75;97683.53;4900400;29;20540;-68
2022/08/28 09:49:51;;;;;;;11.82;5.25;;;;;;;37.16;48.65;97685.69;4895818;29;20751;-69
2022/08/28 09:52:47;;;;;;;20.63;4.88;;;;;;;37.10;48.84;97670.53;4877176;29;20060;-69
2022/08/28 09:55:36;;;;;;;16.83;5.10;;;;;;;37.45;48.66;97662.94;4857832;29;20052;-69
2022/08/28 09:58:41;;;;;;;19.10;5.05;;;;;;;37.09;47.07;97652.19;4885544;29;20177;-69
2022/08/28 10:01:48;;;;;;;20.38;6.05;;;;;;;36.71;47.11;97656.97;4876699;29;20485;-68
2022/08/28 10:05:06;;;;;;;20.73;4.82;;;;;;;37.17;45.68;97648.13;4856351;29;20123;-69
2022/08/28 10:07:51;;;;;;;15.15;4.30;;;;;;;37.31;46.38;97658.31;4885834;29;20419;-69
2022/08/28 10:10:52;;;;;;;12.93;4.95;;;;;;;37.12;46.84;97665.31;4887321;29;20132;-70
2022/08/28 10:13:45;;;;;;;21.25;5.10;;;;;;;36.70;47.08;97669.38;4877655;29;20052;-69
2022/08/28 10:17:00;;;;;;;12.55;4.43;;;;;;;36.77;45.94;97663.72;4879058;29;20067;-70
2022/08/28 10:20:00;;;;;;;17.50;5.07;;;;;;;36.50;49.18;97664.34;4840218;29;20492;-69
2022/08/28 10:23:10;;;;;;;13.40;5.25;;;;;;;36.88;46.69;97664.41;4877873;29;20053;-68
2022/08/28 10:26:19;;;;;;;20.23;4.38;;;;;;;36.72;47.50;97667.75;4866536;29;20049;-68
2022/08/28 10:29:07;;;;;;;14.38;4.82;;;;;;;36.80;46.90;97662.88;4856744;29;20167;-69
2022/08/28 10:32:02;;;;;;;13.57;4.45;;;;;;;36.53;48.62;97668.31;4875979;29;20119;-68
2022/08/28 10:35:03;;;;;;;23.98;5.45;;;;;;;36.16;48.40;97680.97;4874775;29;20076;-68
2022/08/28 10:38:14;;;;;;;13.80;6.32;;;;;;;35.56;51.40;97688.47;4861344;29;20418;-68
2022/08/28 10:41:05;;;;;;;17.85;6.80;;;;;;;35.27;53.91;97683.03;4874426;29;20124;-67
2022/08/28 10:43:57;;;;;;;13.57;6.88;;;;;;;34.50;55.79;97669.59;4862906;29;20059;-69
2022/08/28 10:46:49;;;;;;;18.65;6.90;;;;;;;34.41;51.28;97670.00;4880340;29;20059;-70
2022/08/28 10:50:00;;;;;;;17.67;6.20;;;;;;;34.20;53.14;97668.00;4861684;29;20040;-70
2022/08/28 10:53:09;;;;;;;13.23;6.13;;;;;;;33.71;56.66;97678.66;4897245;29;20070;-67
2022/08/28 10:56:09;;;;;;;13.52;5.60;;;;;;;33.88;53.74;97679.06;4879145;29;20044;-69
2022/08/28 10:58:59;;;;;;;14.20;6.38;;;;;;;33.62;57.35;97675.41;4877116;29;20049;-68
2022/08/28 11:01:51;;;;;;;15.15;6.53;;;;;;;33.00;58.18;97681.91;4880615;29;20049;-69
2022/08/28 11:04:34;;;;;;;11.82;6.78;;;;;;;33.38;59.55;97684.47;4858798;29;20052;-70
2022/08/28 11:07:46;;;;;;;14.57;6.45;;;;;;;33.49;54.89;97682.53;4879315;29;20056;-70
2022/08/28 11:10:34;;;;;;;13.70;5.82;;;;;;;33.13;56.97;97680.41;4539627;29;10000265;-68
2022/08/28 11:13:53;;;;;;;12.27;5.20;;;;;;;33.08;58.78;97688.28;4862771;29;20049;-69
2022/08/28 11:16:45;;;;;;;11.68;5.70;;;;;;;32.47;59.60;97694.22;4881119;29;20049;-69
2022/08/28 11:19:47;;;;;;;14.40;7.25;;;;;;;32.71;57.83;97695.63;4878113;29;20053;-70
2022/08/28 11:23:10;;;;;;;12.30;6.20;;;;;;;32.93;56.98;97704.09;4877427;29;20430;-70
2022/08/28 11:25:57;;;;;;;10.18;6.47;;;;;;;32.95;55.82;97696.94;4831071;29;20052;-68
2022/08/28 11:28:52;;;;;;;9.00;5.97;;;;;;;33.00;57.50;97689.41;4880297;29;20079;-68
2022/08/28 11:31:32;;;;;;;10.27;6.07;;;;;;;33.00;55.77;97684.69;4874666;29;20459;-66
2022/08/28 11:35:03;;;;;;;12.23;6.40;;;;;;;33.01;57.00;97666.00;4875092;29;20048;-68
2022/08/28 11:37:44;;;;;;;11.90;7.05;;;;;;;32.88;56.77;97676.66;4875929;29;20044;-68
2022/08/28 11:40:40;;;;;;;9.63;7.13;;;;;;;32.70;58.90;97674.56;4876629;29;20045;-68
2022/08/28 11:43:16;;;;;;;9.27;5.95;;;;;;;33.05;52.85;97667.63;4875051;29;20049;-67
2022/08/28 11:46:28;;;;;;;12.23;7.40;;;;;;;32.45;60.32;97663.25;4886981;29;20540;-67
2022/08/28 11:49:27;;;;;;;12.65;7.07;;;;;;;33.02;58.88;97662.84;4871902;29;20819;-67
2022/08/28 11:52:50;;;;;;;10.85;7.13;;;;;;;32.81;59.16;97665.50;4882924;29;20633;-67
2022/08/28 11:56:12;;;;;;;9.98;6.07;;;;;;;33.11;52.66;97654.16;4849358;29;20121;-68
2022/08/28 11:59:24;;;;;;;8.55;5.53;;;;;;;33.29;56.33;97657.84;4868591;29;20064;-67
2022/08/28 12:02:45;;;;;;;9.25;5.97;;;;;;;33.14;57.12;97647.84;4855252;29;20052;-67
2022/08/28 12:05:30;;;;;;;11.68;6.40;;;;;;;33.16;58.08;97662.94;4870512;29;20056;-68
2022/08/28 12:08:39;;;;;;;13.85;6.35;;;;;;;33.23;57.01;97662.19;4881979;29;20111;-68
2022/08/28 12:11:39;;;;;;;7.47;5.82;;;;;;;32.72;57.96;97676.97;4859245;29;20060;-66
2022/08/28 12:14:32;;;;;;;8.57;5.63;;;;;;;32.74;57.48;97674.59;4862517;29;20064;-68
2022/08/28 12:17:27;;;;;;;8.88;5.47;;;;;;;32.92;56.27;97663.56;4874506;29;20049;-68
2022/08/28 12:20:29;;;;;;;9.15;5.07;;;;;;;33.30;55.68;97662.19;4873744;29;20105;-68
2022/08/28 12:23:33;;;;;;;7.35;5.00;;;;;;;32.92;57.59;97656.06;4881321;29;20048;-67
2022/08/28 12:26:28;;;;;;;13.60;5.78;;;;;;;32.89;57.60;97650.47;4882032;29;20052;-68
2022/08/28 12:29:28;;;;;;;10.20;5.85;;;;;;;33.33;56.73;97650.28;4886661;29;20060;-69
2022/08/28 12:32:43;;;;;;;7.88;5.85;;;;;;;33.45;56.54;97654.69;4889113;29;20124;-68
2022/08/28 12:35:26;;;;;;;8.80;6.13;;;;;;;33.48;57.48;97650.34;4890012;29;20780;-68
2022/08/28 12:38:24;;;;;;;15.95;6.78;;;;;;;33.47;57.65;97657.09;4891199;29;20124;-68
2022/08/28 12:41:15;;;;;;;11.55;5.63;;;;;;;33.59;58.07;97656.72;4888117;29;20048;-71
2022/08/28 12:44:07;;;;;;;14.15;6.00;;;;;;;33.50;56.44;97659.09;4854929;29;20049;-67
2022/08/28 12:46:57;;;;;;;14.32;6.55;;;;;;;33.52;58.81;97662.28;4853876;29;20053;-68
2022/08/28 12:49:42;;;;;;;11.60;5.60;;;;;;;33.62;56.07;97663.50;4855266;29;20049;-67
2022/08/28 12:52:37;;;;;;;13.93;5.97;;;;;;;33.64;55.52;97669.50;4855117;29;20072;-68
2022/08/28 12:55:13;;;;;;;8.65;6.07;;;;;;;33.44;59.02;97672.59;4872239;29;20540;-68
2022/08/28 12:58:19;;;;;;;11.68;6.85;;;;;;;33.27;59.64;97663.00;4885411;29;20127;-68
2022/08/28 13:00:58;;;;;;;18.23;7.10;;;;;;;33.27;59.09;97663.00;4876017;29;20049;-67
2022/08/28 13:04:00;;;;;;;9.10;6.55;;;;;;;33.37;57.28;97666.22;4873568;29;20106;-66
2022/08/28 13:06:37;;;;;;;12.65;6.28;;;;;;;33.37;59.52;97672.56;4872796;29;20041;-68
2022/08/28 13:09:34;;;;;;;11.02;6.20;;;;;;;33.26;58.38;97666.94;4873797;29;20151;-68
2022/08/28 13:12:19;;;;;;;13.38;5.80;;;;;;;33.28;59.37;97675.69;4858142;29;20049;-68
2022/08/28 13:15:52;;;;;;;11.57;7.07;;;;;;;33.33;58.13;97675.31;4861826;29;20477;-68
2022/08/28 13:18:44;;;;;;;13.20;7.85;;;;;;;33.27;59.34;97685.25;4867587;29;20821;-68
2022/08/28 13:21:29;;;;;;;19.27;7.28;;;;;;;33.23;60.13;97692.78;4890100;29;20152;-69
2022/08/28 13:24:26;;;;;;;13.82;7.00;;;;;;;33.24;59.82;97690.78;4890814;29;20076;-69